sensor_id;sensor_type;location;lat;lon;timestamp;P1;durP1;ratioP1;P2;durP2;ratioP2
69841;SDS011;57138;51.326;-0.068;2022-12-08T00:01:31;38.75;;;14.13;;
69841;SDS011;57138;51.326;-0.068;2022-12-08T00:03:59;41.67;;;14.52;;
69841;SDS011;57138;51.326;-0.068;2022-12-08T00:06:27;31.50;;;15.18;;
69841;SDS011;57138;51.326;-0.068;2022-12-08T00:09:12;39.78;;;15.48;;
69841;SDS011;57138;51.326;-0.068;2022-12-08T00:14:21;44.10;;;16.23;;
69841;SDS011;57138;51.326;-0.068;2022-12-08T00:16:47;43.20;;;16.42;;
69841;SDS011;57138;51.326;-0.068;2022-12-08T00:19:13;44.63;;;16.23;;
69841;SDS011;57138;51.326;-0.068;2022-12-08T00:21:38;40.15;;;16.65;;
69841;SDS011;57138;51.326;-0.068;2022-12-08T00:24:04;35.00;;;15.25;;
69841;SDS011;57138;51.326;-0.068;2022-12-08T00:26:29;38.25;;;14.35;;
69841;SDS011;57138;51.326;-0.068;2022-12-08T00:28:55;37.42;;;15.02;;
69841;SDS011;57138;51.326;-0.068;2022-12-08T00:31:21;30.08;;;14.18;;
69841;SDS011;57138;51.326;-0.068;2022-12-08T00:33:46;27.33;;;13.45;;
69841;SDS011;57138;51.326;-0.068;2022-12-08T00:36:12;31.67;;;14.00;;
69841;SDS011;57138;51.326;-0.068;2022-12-08T00:38:39;39.53;;;15.35;;
69841;SDS011;57138;51.326;-0.068;2022-12-08T00:41:11;38.65;;;14.57;;
69841;SDS011;57138;51.326;-0.068;2022-12-08T00:43:38;44.72;;;16.05;;
69841;SDS011;57138;51.326;-0.068;2022-12-08T00:46:04;39.97;;;15.30;;
69841;SDS011;57138;51.326;-0.068;2022-12-08T00:48:29;41.70;;;16.52;;
69841;SDS011;57138;51.326;-0.068;2022-12-08T00:50:54;39.95;;;15.00;;
69841;SDS011;57138;51.326;-0.068;2022-12-08T00:53:20;41.47;;;16.10;;
69841;SDS011;57138;51.326;-0.068;2022-12-08T00:55:45;41.10;;;16.33;;
69841;SDS011;57138;51.326;-0.068;2022-12-08T00:58:11;36.13;;;15.27;;
69841;SDS011;57138;51.326;-0.068;2022-12-08T01:00:38;42.33;;;15.80;;
69841;SDS011;57138;51.326;-0.068;2022-12-08T01:03:08;38.33;;;15.23;;
69841;SDS011;57138;51.326;-0.068;2022-12-08T01:05:34;45.60;;;17.40;;
69841;SDS011;57138;51.326;-0.068;2022-12-08T01:08:00;37.33;;;16.27;;
69841;SDS011;57138;51.326;-0.068;2022-12-08T01:10:26;33.83;;;15.48;;
69841;SDS011;57138;51.326;-0.068;2022-12-08T01:12:53;45.22;;;17.15;;
69841;SDS011;57138;51.326;-0.068;2022-12-08T01:15:18;39.72;;;16.75;;
69841;SDS011;57138;51.326;-0.068;2022-12-08T01:17:44;36.47;;;16.30;;
69841;SDS011;57138;51.326;-0.068;2022-12-08T01:20:10;42.53;;;16.50;;
69841;SDS011;57138;51.326;-0.068;2022-12-08T01:22:36;40.88;;;16.20;;
69841;SDS011;57138;51.326;-0.068;2022-12-08T01:25:01;46.88;;;18.02;;
69841;SDS011;57138;51.326;-0.068;2022-12-08T01:27:27;45.83;;;17.85;;
69841;SDS011;57138;51.326;-0.068;2022-12-08T01:29:53;38.25;;;16.90;;
69841;SDS011;57138;51.326;-0.068;2022-12-08T01:32:18;36.67;;;16.30;;
69841;SDS011;57138;51.326;-0.068;2022-12-08T01:34:44;41.03;;;17.00;;
69841;SDS011;57138;51.326;-0.068;2022-12-08T01:37:09;47.65;;;15.77;;
69841;SDS011;57138;51.326;-0.068;2022-12-08T01:39:36;45.28;;;17.85;;
69841;SDS011;57138;51.326;-0.068;2022-12-08T01:42:02;49.25;;;17.05;;
69841;SDS011;57138;51.326;-0.068;2022-12-08T01:46:54;48.88;;;16.98;;
69841;SDS011;57138;51.326;-0.068;2022-12-08T01:49:21;55.97;;;19.15;;
69841;SDS011;57138;51.326;-0.068;2022-12-08T01:54:38;42.00;;;17.00;;
69841;SDS011;57138;51.326;-0.068;2022-12-08T01:57:12;31.65;;;14.32;;
69841;SDS011;57138;51.326;-0.068;2022-12-08T01:59:50;47.92;;;16.80;;
69841;SDS011;57138;51.326;-0.068;2022-12-08T02:02:19;40.13;;;16.88;;
69841;SDS011;57138;51.326;-0.068;2022-12-08T02:04:45;38.38;;;16.83;;
69841;SDS011;57138;51.326;-0.068;2022-12-08T02:07:11;44.13;;;16.52;;
69841;SDS011;57138;51.326;-0.068;2022-12-08T02:09:39;45.28;;;16.55;;
69841;SDS011;57138;51.326;-0.068;2022-12-08T02:12:07;43.05;;;17.08;;
69841;SDS011;57138;51.326;-0.068;2022-12-08T02:14:35;39.30;;;17.02;;
69841;SDS011;57138;51.326;-0.068;2022-12-08T02:19:59;35.67;;;15.48;;
69841;SDS011;57138;51.326;-0.068;2022-12-08T02:22:57;36.50;;;16.20;;
69841;SDS011;57138;51.326;-0.068;2022-12-08T02:34:28;39.25;;;15.68;;
69841;SDS011;57138;51.326;-0.068;2022-12-08T02:40:02;39.03;;;15.32;;
69841;SDS011;57138;51.326;-0.068;2022-12-08T02:42:31;43.58;;;16.48;;
69841;SDS011;57138;51.326;-0.068;2022-12-08T02:45:14;43.70;;;15.90;;
69841;SDS011;57138;51.326;-0.068;2022-12-08T02:47:50;44.65;;;15.50;;
69841;SDS011;57138;51.326;-0.068;2022-12-08T02:50:16;43.83;;;17.45;;
69841;SDS011;57138;51.326;-0.068;2022-12-08T02:52:46;43.22;;;17.55;;
69841;SDS011;57138;51.326;-0.068;2022-12-08T03:07:31;48.38;;;16.15;;
69841;SDS011;57138;51.326;-0.068;2022-12-08T03:15:45;50.60;;;18.20;;
69841;SDS011;57138;51.326;-0.068;2022-12-08T03:18:13;41.95;;;16.48;;
69841;SDS011;57138;51.326;-0.068;2022-12-08T03:20:41;43.88;;;17.65;;
69841;SDS011;57138;51.326;-0.068;2022-12-08T03:23:09;44.55;;;18.65;;
69841;SDS011;57138;51.326;-0.068;2022-12-08T03:25:40;46.03;;;18.73;;
69841;SDS011;57138;51.326;-0.068;2022-12-08T03:28:11;42.00;;;17.90;;
69841;SDS011;57138;51.326;-0.068;2022-12-08T03:30:38;39.80;;;17.02;;
69841;SDS011;57138;51.326;-0.068;2022-12-08T03:33:08;43.28;;;17.27;;
69841;SDS011;57138;51.326;-0.068;2022-12-08T03:35:42;50.20;;;18.15;;
69841;SDS011;57138;51.326;-0.068;2022-12-08T03:38:11;46.45;;;18.65;;
69841;SDS011;57138;51.326;-0.068;2022-12-08T03:40:39;45.50;;;17.85;;
69841;SDS011;57138;51.326;-0.068;2022-12-08T03:43:05;45.88;;;16.45;;
69841;SDS011;57138;51.326;-0.068;2022-12-08T03:45:31;46.80;;;19.42;;
69841;SDS011;57138;51.326;-0.068;2022-12-08T03:47:56;46.20;;;19.17;;
69841;SDS011;57138;51.326;-0.068;2022-12-08T03:50:22;41.05;;;17.60;;
69841;SDS011;57138;51.326;-0.068;2022-12-08T03:52:47;42.58;;;18.92;;
69841;SDS011;57138;51.326;-0.068;2022-12-08T03:55:13;44.35;;;17.70;;
69841;SDS011;57138;51.326;-0.068;2022-12-08T03:57:39;42.70;;;18.50;;
69841;SDS011;57138;51.326;-0.068;2022-12-08T04:00:05;40.53;;;17.33;;
69841;SDS011;57138;51.326;-0.068;2022-12-08T04:02:32;42.95;;;17.95;;
69841;SDS011;57138;51.326;-0.068;2022-12-08T04:04:58;42.20;;;17.52;;
69841;SDS011;57138;51.326;-0.068;2022-12-08T04:07:23;45.78;;;18.25;;
69841;SDS011;57138;51.326;-0.068;2022-12-08T04:09:49;48.90;;;18.30;;
69841;SDS011;57138;51.326;-0.068;2022-12-08T04:12:14;45.08;;;19.02;;
69841;SDS011;57138;51.326;-0.068;2022-12-08T04:14:39;40.70;;;18.75;;
69841;SDS011;57138;51.326;-0.068;2022-12-08T04:17:05;35.90;;;16.95;;
69841;SDS011;57138;51.326;-0.068;2022-12-08T04:19:30;39.90;;;17.90;;
69841;SDS011;57138;51.326;-0.068;2022-12-08T04:21:56;48.85;;;18.63;;
69841;SDS011;57138;51.326;-0.068;2022-12-08T04:24:21;54.90;;;18.15;;
69841;SDS011;57138;51.326;-0.068;2022-12-08T04:26:47;50.63;;;19.83;;
69841;SDS011;57138;51.326;-0.068;2022-12-08T04:29:13;39.58;;;18.08;;
69841;SDS011;57138;51.326;-0.068;2022-12-08T04:31:39;43.08;;;19.10;;
69841;SDS011;57138;51.326;-0.068;2022-12-08T04:34:05;47.58;;;19.77;;
69841;SDS011;57138;51.326;-0.068;2022-12-08T04:36:30;42.25;;;19.02;;
69841;SDS011;57138;51.326;-0.068;2022-12-08T04:38:56;41.08;;;17.40;;
69841;SDS011;57138;51.326;-0.068;2022-12-08T04:41:21;45.15;;;17.08;;
69841;SDS011;57138;51.326;-0.068;2022-12-08T04:43:47;38.67;;;16.80;;
69841;SDS011;57138;51.326;-0.068;2022-12-08T04:46:12;42.15;;;18.95;;
69841;SDS011;57138;51.326;-0.068;2022-12-08T04:48:38;45.33;;;18.95;;
69841;SDS011;57138;51.326;-0.068;2022-12-08T04:51:05;49.38;;;18.88;;
69841;SDS011;57138;51.326;-0.068;2022-12-08T04:53:31;43.17;;;18.23;;
69841;SDS011;57138;51.326;-0.068;2022-12-08T04:55:57;47.40;;;19.80;;
69841;SDS011;57138;51.326;-0.068;2022-12-08T04:58:22;44.90;;;19.50;;
69841;SDS011;57138;51.326;-0.068;2022-12-08T05:00:48;45.50;;;19.52;;
69841;SDS011;57138;51.326;-0.068;2022-12-08T05:03:13;46.90;;;20.17;;
69841;SDS011;57138;51.326;-0.068;2022-12-08T05:05:40;48.75;;;20.00;;
69841;SDS011;57138;51.326;-0.068;2022-12-08T05:08:06;38.35;;;17.15;;
69841;SDS011;57138;51.326;-0.068;2022-12-08T05:10:32;47.85;;;18.70;;
69841;SDS011;57138;51.326;-0.068;2022-12-08T05:12:58;42.75;;;18.83;;
69841;SDS011;57138;51.326;-0.068;2022-12-08T05:15:24;46.55;;;18.13;;
69841;SDS011;57138;51.326;-0.068;2022-12-08T05:17:49;45.15;;;16.83;;
69841;SDS011;57138;51.326;-0.068;2022-12-08T05:20:15;44.33;;;18.85;;
69841;SDS011;57138;51.326;-0.068;2022-12-08T05:22:40;46.63;;;18.48;;
69841;SDS011;57138;51.326;-0.068;2022-12-08T05:25:06;44.28;;;17.40;;
69841;SDS011;57138;51.326;-0.068;2022-12-08T05:27:33;42.88;;;18.10;;
69841;SDS011;57138;51.326;-0.068;2022-12-08T05:29:58;48.47;;;19.50;;
69841;SDS011;57138;51.326;-0.068;2022-12-08T05:32:23;52.08;;;19.85;;
69841;SDS011;57138;51.326;-0.068;2022-12-08T05:34:49;51.45;;;20.48;;
69841;SDS011;57138;51.326;-0.068;2022-12-08T05:37:14;54.85;;;18.95;;
69841;SDS011;57138;51.326;-0.068;2022-12-08T05:39:39;50.92;;;19.88;;
69841;SDS011;57138;51.326;-0.068;2022-12-08T05:42:05;56.20;;;20.17;;
69841;SDS011;57138;51.326;-0.068;2022-12-08T05:44:30;57.40;;;21.20;;
69841;SDS011;57138;51.326;-0.068;2022-12-08T05:46:56;51.13;;;19.15;;
69841;SDS011;57138;51.326;-0.068;2022-12-08T05:49:21;52.28;;;19.95;;
69841;SDS011;57138;51.326;-0.068;2022-12-08T05:51:46;43.50;;;18.02;;
69841;SDS011;57138;51.326;-0.068;2022-12-08T05:54:12;44.65;;;19.67;;
69841;SDS011;57138;51.326;-0.068;2022-12-08T05:56:38;50.58;;;18.92;;
69841;SDS011;57138;51.326;-0.068;2022-12-08T05:59:04;42.17;;;17.92;;
69841;SDS011;57138;51.326;-0.068;2022-12-08T06:01:31;35.78;;;16.17;;
69841;SDS011;57138;51.326;-0.068;2022-12-08T06:03:57;51.65;;;19.38;;
69841;SDS011;57138;51.326;-0.068;2022-12-08T06:06:25;46.90;;;19.40;;
69841;SDS011;57138;51.326;-0.068;2022-12-08T06:08:51;40.60;;;17.17;;
69841;SDS011;57138;51.326;-0.068;2022-12-08T06:11:20;42.10;;;17.02;;
69841;SDS011;57138;51.326;-0.068;2022-12-08T06:13:48;38.95;;;18.35;;
69841;SDS011;57138;51.326;-0.068;2022-12-08T06:16:14;43.92;;;16.92;;
69841;SDS011;57138;51.326;-0.068;2022-12-08T06:18:39;44.97;;;18.75;;
69841;SDS011;57138;51.326;-0.068;2022-12-08T06:21:05;37.00;;;17.42;;
69841;SDS011;57138;51.326;-0.068;2022-12-08T06:23:32;44.63;;;18.42;;
69841;SDS011;57138;51.326;-0.068;2022-12-08T06:26:05;36.25;;;16.65;;
69841;SDS011;57138;51.326;-0.068;2022-12-08T06:28:33;45.97;;;18.20;;
69841;SDS011;57138;51.326;-0.068;2022-12-08T06:30:59;41.05;;;17.85;;
69841;SDS011;57138;51.326;-0.068;2022-12-08T06:33:36;38.63;;;16.08;;
69841;SDS011;57138;51.326;-0.068;2022-12-08T06:36:02;48.78;;;16.48;;
69841;SDS011;57138;51.326;-0.068;2022-12-08T06:38:28;49.22;;;17.33;;
69841;SDS011;57138;51.326;-0.068;2022-12-08T06:40:54;42.35;;;16.83;;
69841;SDS011;57138;51.326;-0.068;2022-12-08T06:43:21;45.50;;;16.25;;
69841;SDS011;57138;51.326;-0.068;2022-12-08T06:45:47;50.17;;;17.13;;
69841;SDS011;57138;51.326;-0.068;2022-12-08T06:48:13;39.58;;;16.95;;
69841;SDS011;57138;51.326;-0.068;2022-12-08T06:50:38;47.50;;;17.88;;
69841;SDS011;57138;51.326;-0.068;2022-12-08T06:53:03;39.03;;;17.63;;
69841;SDS011;57138;51.326;-0.068;2022-12-08T06:55:29;43.00;;;15.90;;
69841;SDS011;57138;51.326;-0.068;2022-12-08T06:57:54;50.65;;;17.00;;
69841;SDS011;57138;51.326;-0.068;2022-12-08T07:00:20;50.63;;;18.35;;
69841;SDS011;57138;51.326;-0.068;2022-12-08T07:02:45;44.38;;;18.02;;
69841;SDS011;57138;51.326;-0.068;2022-12-08T07:05:11;36.13;;;16.02;;
69841;SDS011;57138;51.326;-0.068;2022-12-08T07:07:36;42.20;;;17.10;;
69841;SDS011;57138;51.326;-0.068;2022-12-08T07:10:02;47.88;;;18.05;;
69841;SDS011;57138;51.326;-0.068;2022-12-08T07:12:27;43.20;;;17.15;;
69841;SDS011;57138;51.326;-0.068;2022-12-08T07:14:53;43.13;;;16.95;;
69841;SDS011;57138;51.326;-0.068;2022-12-08T07:17:18;41.65;;;15.95;;
69841;SDS011;57138;51.326;-0.068;2022-12-08T07:19:44;42.40;;;16.02;;
69841;SDS011;57138;51.326;-0.068;2022-12-08T07:22:09;47.05;;;16.65;;
69841;SDS011;57138;51.326;-0.068;2022-12-08T07:24:35;39.17;;;16.83;;
69841;SDS011;57138;51.326;-0.068;2022-12-08T07:27:00;43.63;;;16.55;;
69841;SDS011;57138;51.326;-0.068;2022-12-08T07:29:25;42.90;;;17.50;;
69841;SDS011;57138;51.326;-0.068;2022-12-08T07:31:51;46.90;;;16.92;;
69841;SDS011;57138;51.326;-0.068;2022-12-08T07:34:16;40.53;;;16.77;;
69841;SDS011;57138;51.326;-0.068;2022-12-08T07:36:41;44.25;;;17.20;;
69841;SDS011;57138;51.326;-0.068;2022-12-08T07:39:07;48.58;;;18.58;;
69841;SDS011;57138;51.326;-0.068;2022-12-08T07:41:33;38.15;;;16.17;;
69841;SDS011;57138;51.326;-0.068;2022-12-08T07:43:58;40.05;;;16.25;;
69841;SDS011;57138;51.326;-0.068;2022-12-08T07:46:24;37.33;;;15.85;;
69841;SDS011;57138;51.326;-0.068;2022-12-08T07:48:53;37.85;;;15.63;;
69841;SDS011;57138;51.326;-0.068;2022-12-08T07:51:19;48.03;;;17.52;;
69841;SDS011;57138;51.326;-0.068;2022-12-08T07:53:46;40.03;;;15.00;;
69841;SDS011;57138;51.326;-0.068;2022-12-08T07:56:12;46.78;;;16.67;;
69841;SDS011;57138;51.326;-0.068;2022-12-08T07:58:38;50.95;;;17.75;;
69841;SDS011;57138;51.326;-0.068;2022-12-08T08:01:05;48.22;;;18.33;;
69841;SDS011;57138;51.326;-0.068;2022-12-08T08:03:30;46.80;;;16.63;;
69841;SDS011;57138;51.326;-0.068;2022-12-08T08:06:03;40.08;;;16.40;;
69841;SDS011;57138;51.326;-0.068;2022-12-08T08:08:29;43.72;;;17.27;;
69841;SDS011;57138;51.326;-0.068;2022-12-08T08:10:55;49.30;;;16.60;;
69841;SDS011;57138;51.326;-0.068;2022-12-08T08:13:21;47.72;;;16.45;;
69841;SDS011;57138;51.326;-0.068;2022-12-08T08:15:46;43.05;;;17.27;;
69841;SDS011;57138;51.326;-0.068;2022-12-08T08:18:11;49.97;;;17.50;;
69841;SDS011;57138;51.326;-0.068;2022-12-08T08:20:37;43.95;;;18.10;;
69841;SDS011;57138;51.326;-0.068;2022-12-08T08:23:02;63.22;;;24.35;;
69841;SDS011;57138;51.326;-0.068;2022-12-08T08:25:27;63.08;;;23.67;;
69841;SDS011;57138;51.326;-0.068;2022-12-08T08:27:53;70.05;;;26.00;;
69841;SDS011;57138;51.326;-0.068;2022-12-08T08:30:18;64.30;;;24.65;;
69841;SDS011;57138;51.326;-0.068;2022-12-08T08:32:44;64.82;;;23.42;;
69841;SDS011;57138;51.326;-0.068;2022-12-08T08:35:10;50.40;;;20.52;;
69841;SDS011;57138;51.326;-0.068;2022-12-08T08:37:35;57.65;;;21.55;;
69841;SDS011;57138;51.326;-0.068;2022-12-08T08:40:01;55.10;;;19.25;;
69841;SDS011;57138;51.326;-0.068;2022-12-08T08:42:27;52.38;;;19.23;;
69841;SDS011;57138;51.326;-0.068;2022-12-08T08:44:53;49.50;;;17.95;;
69841;SDS011;57138;51.326;-0.068;2022-12-08T08:47:18;47.42;;;17.52;;
69841;SDS011;57138;51.326;-0.068;2022-12-08T08:49:44;49.63;;;17.55;;
69841;SDS011;57138;51.326;-0.068;2022-12-08T08:52:10;59.25;;;20.10;;
69841;SDS011;57138;51.326;-0.068;2022-12-08T08:54:35;52.70;;;19.00;;
69841;SDS011;57138;51.326;-0.068;2022-12-08T08:57:01;48.50;;;19.23;;
69841;SDS011;57138;51.326;-0.068;2022-12-08T08:59:27;53.58;;;20.13;;
69841;SDS011;57138;51.326;-0.068;2022-12-08T09:01:53;48.88;;;19.10;;
69841;SDS011;57138;51.326;-0.068;2022-12-08T09:04:19;57.63;;;18.75;;
69841;SDS011;57138;51.326;-0.068;2022-12-08T09:06:46;49.17;;;19.08;;
69841;SDS011;57138;51.326;-0.068;2022-12-08T09:09:12;55.33;;;19.95;;
69841;SDS011;57138;51.326;-0.068;2022-12-08T09:11:38;59.08;;;22.42;;
69841;SDS011;57138;51.326;-0.068;2022-12-08T09:14:04;69.28;;;23.92;;
69841;SDS011;57138;51.326;-0.068;2022-12-08T09:16:29;69.47;;;24.70;;
69841;SDS011;57138;51.326;-0.068;2022-12-08T09:18:55;63.70;;;24.45;;
69841;SDS011;57138;51.326;-0.068;2022-12-08T09:21:21;69.70;;;22.95;;
69841;SDS011;57138;51.326;-0.068;2022-12-08T09:23:50;66.50;;;22.92;;
69841;SDS011;57138;51.326;-0.068;2022-12-08T09:26:18;62.58;;;23.20;;
69841;SDS011;57138;51.326;-0.068;2022-12-08T09:28:48;66.75;;;23.95;;
69841;SDS011;57138;51.326;-0.068;2022-12-08T09:31:15;50.70;;;19.83;;
69841;SDS011;57138;51.326;-0.068;2022-12-08T09:33:42;56.92;;;21.83;;
69841;SDS011;57138;51.326;-0.068;2022-12-08T09:36:08;54.10;;;19.23;;
69841;SDS011;57138;51.326;-0.068;2022-12-08T09:38:34;64.10;;;21.08;;
69841;SDS011;57138;51.326;-0.068;2022-12-08T09:41:00;55.75;;;21.10;;
69841;SDS011;57138;51.326;-0.068;2022-12-08T09:46:06;64.07;;;23.15;;
69841;SDS011;57138;51.326;-0.068;2022-12-08T09:48:34;69.40;;;20.77;;
69841;SDS011;57138;51.326;-0.068;2022-12-08T09:51:03;66.10;;;24.10;;
69841;SDS011;57138;51.326;-0.068;2022-12-08T09:53:41;65.28;;;22.17;;
69841;SDS011;57138;51.326;-0.068;2022-12-08T09:56:13;57.10;;;20.88;;
69841;SDS011;57138;51.326;-0.068;2022-12-08T10:01:35;64.07;;;21.77;;
69841;SDS011;57138;51.326;-0.068;2022-12-08T10:04:51;53.90;;;19.58;;
69841;SDS011;57138;51.326;-0.068;2022-12-08T10:10:45;56.95;;;19.92;;
69841;SDS011;57138;51.326;-0.068;2022-12-08T10:18:34;60.60;;;20.50;;
69841;SDS011;57138;51.326;-0.068;2022-12-08T10:21:11;55.95;;;20.20;;
69841;SDS011;57138;51.326;-0.068;2022-12-08T10:23:41;53.90;;;20.20;;
69841;SDS011;57138;51.326;-0.068;2022-12-08T10:26:14;44.75;;;18.77;;
69841;SDS011;57138;51.326;-0.068;2022-12-08T10:28:42;56.25;;;21.75;;
69841;SDS011;57138;51.326;-0.068;2022-12-08T10:31:41;59.25;;;21.08;;
69841;SDS011;57138;51.326;-0.068;2022-12-08T10:34:00;53.30;;;20.65;;
69841;SDS011;57138;51.326;-0.068;2022-12-08T10:47:28;57.80;;;21.67;;
69841;SDS011;57138;51.326;-0.068;2022-12-08T10:53:32;51.08;;;21.65;;
69841;SDS011;57138;51.326;-0.068;2022-12-08T10:56:14;55.90;;;23.60;;
69841;SDS011;57138;51.326;-0.068;2022-12-08T10:58:41;56.20;;;20.88;;
69841;SDS011;57138;51.326;-0.068;2022-12-08T11:01:21;48.65;;;18.75;;
69841;SDS011;57138;51.326;-0.068;2022-12-08T11:03:51;54.47;;;20.38;;
69841;SDS011;57138;51.326;-0.068;2022-12-08T11:06:29;58.92;;;21.40;;
69841;SDS011;57138;51.326;-0.068;2022-12-08T11:09:03;52.05;;;22.55;;
69841;SDS011;57138;51.326;-0.068;2022-12-08T11:11:43;56.40;;;27.00;;
69841;SDS011;57138;51.326;-0.068;2022-12-08T11:14:15;69.35;;;29.58;;
69841;SDS011;57138;51.326;-0.068;2022-12-08T11:16:46;56.35;;;29.05;;
69841;SDS011;57138;51.326;-0.068;2022-12-08T11:19:16;58.08;;;23.67;;
69841;SDS011;57138;51.326;-0.068;2022-12-08T11:21:43;55.47;;;23.80;;
69841;SDS011;57138;51.326;-0.068;2022-12-08T11:24:20;52.47;;;26.65;;
69841;SDS011;57138;51.326;-0.068;2022-12-08T11:26:52;47.40;;;23.80;;
69841;SDS011;57138;51.326;-0.068;2022-12-08T11:29:30;37.67;;;18.45;;
69841;SDS011;57138;51.326;-0.068;2022-12-08T11:32:02;45.63;;;21.50;;
69841;SDS011;57138;51.326;-0.068;2022-12-08T11:37:20;52.45;;;28.88;;
69841;SDS011;57138;51.326;-0.068;2022-12-08T11:39:50;35.67;;;17.70;;
69841;SDS011;57138;51.326;-0.068;2022-12-08T11:42:19;35.05;;;17.65;;
69841;SDS011;57138;51.326;-0.068;2022-12-08T11:44:50;38.63;;;18.73;;
69841;SDS011;57138;51.326;-0.068;2022-12-08T11:47:23;38.30;;;17.17;;
69841;SDS011;57138;51.326;-0.068;2022-12-08T11:50:15;38.55;;;15.98;;
69841;SDS011;57138;51.326;-0.068;2022-12-08T11:52:47;34.50;;;17.10;;
69841;SDS011;57138;51.326;-0.068;2022-12-08T11:55:33;37.25;;;16.95;;
69841;SDS011;57138;51.326;-0.068;2022-12-08T11:58:15;36.38;;;17.73;;
69841;SDS011;57138;51.326;-0.068;2022-12-08T12:00:45;39.40;;;19.20;;
69841;SDS011;57138;51.326;-0.068;2022-12-08T12:03:22;32.85;;;15.68;;
69841;SDS011;57138;51.326;-0.068;2022-12-08T12:11:44;37.85;;;17.88;;
69841;SDS011;57138;51.326;-0.068;2022-12-08T12:22:40;37.65;;;18.25;;
69841;SDS011;57138;51.326;-0.068;2022-12-08T12:25:21;37.67;;;18.38;;
69841;SDS011;57138;51.326;-0.068;2022-12-08T12:27:54;42.42;;;19.23;;
69841;SDS011;57138;51.326;-0.068;2022-12-08T12:30:27;36.53;;;17.80;;
69841;SDS011;57138;51.326;-0.068;2022-12-08T12:32:58;34.63;;;17.90;;
69841;SDS011;57138;51.326;-0.068;2022-12-08T12:38:03;37.20;;;18.50;;
69841;SDS011;57138;51.326;-0.068;2022-12-08T12:41:01;40.85;;;18.55;;
69841;SDS011;57138;51.326;-0.068;2022-12-08T12:43:33;34.42;;;17.15;;
69841;SDS011;57138;51.326;-0.068;2022-12-08T12:48:48;41.40;;;18.33;;
69841;SDS011;57138;51.326;-0.068;2022-12-08T12:54:21;40.30;;;18.95;;
69841;SDS011;57138;51.326;-0.068;2022-12-08T12:56:49;43.08;;;21.30;;
69841;SDS011;57138;51.326;-0.068;2022-12-08T13:04:52;34.20;;;17.75;;
69841;SDS011;57138;51.326;-0.068;2022-12-08T13:07:19;32.58;;;16.67;;
69841;SDS011;57138;51.326;-0.068;2022-12-08T13:09:47;30.10;;;16.15;;
69841;SDS011;57138;51.326;-0.068;2022-12-08T13:12:22;35.78;;;19.35;;
69841;SDS011;57138;51.326;-0.068;2022-12-08T13:14:48;31.90;;;14.75;;
69841;SDS011;57138;51.326;-0.068;2022-12-08T13:17:26;29.88;;;16.83;;
69841;SDS011;57138;51.326;-0.068;2022-12-08T13:19:56;32.80;;;15.20;;
69841;SDS011;57138;51.326;-0.068;2022-12-08T13:30:51;32.22;;;15.48;;
69841;SDS011;57138;51.326;-0.068;2022-12-08T13:33:25;26.10;;;14.70;;
69841;SDS011;57138;51.326;-0.068;2022-12-08T13:36:02;25.25;;;15.13;;
69841;SDS011;57138;51.326;-0.068;2022-12-08T13:38:40;26.52;;;14.43;;
69841;SDS011;57138;51.326;-0.068;2022-12-08T13:41:12;30.50;;;15.90;;
69841;SDS011;57138;51.326;-0.068;2022-12-08T13:43:46;36.15;;;15.18;;
69841;SDS011;57138;51.326;-0.068;2022-12-08T13:46:22;26.92;;;14.75;;
69841;SDS011;57138;51.326;-0.068;2022-12-08T13:48:56;33.90;;;14.70;;
69841;SDS011;57138;51.326;-0.068;2022-12-08T13:51:27;29.25;;;14.48;;
69841;SDS011;57138;51.326;-0.068;2022-12-08T13:54:16;33.55;;;14.73;;
69841;SDS011;57138;51.326;-0.068;2022-12-08T13:57:00;22.93;;;13.87;;
69841;SDS011;57138;51.326;-0.068;2022-12-08T13:59:31;31.80;;;13.63;;
69841;SDS011;57138;51.326;-0.068;2022-12-08T14:02:09;28.92;;;14.88;;
69841;SDS011;57138;51.326;-0.068;2022-12-08T14:04:45;25.90;;;12.77;;
69841;SDS011;57138;51.326;-0.068;2022-12-08T14:07:13;29.88;;;14.05;;
69841;SDS011;57138;51.326;-0.068;2022-12-08T14:09:41;23.55;;;13.57;;
69841;SDS011;57138;51.326;-0.068;2022-12-08T14:14:46;30.08;;;13.45;;
69841;SDS011;57138;51.326;-0.068;2022-12-08T14:17:16;23.08;;;13.23;;
69841;SDS011;57138;51.326;-0.068;2022-12-08T14:19:46;31.02;;;13.02;;
69841;SDS011;57138;51.326;-0.068;2022-12-08T14:22:39;27.85;;;13.45;;
69841;SDS011;57138;51.326;-0.068;2022-12-08T14:25:07;33.53;;;13.13;;
69841;SDS011;57138;51.326;-0.068;2022-12-08T14:27:38;23.02;;;12.40;;
69841;SDS011;57138;51.326;-0.068;2022-12-08T14:32:57;25.10;;;12.95;;
69841;SDS011;57138;51.326;-0.068;2022-12-08T14:38:04;23.65;;;12.35;;
69841;SDS011;57138;51.326;-0.068;2022-12-08T14:40:44;24.55;;;11.60;;
69841;SDS011;57138;51.326;-0.068;2022-12-08T14:43:15;23.40;;;11.45;;
69841;SDS011;57138;51.326;-0.068;2022-12-08T14:48:22;24.33;;;12.65;;
69841;SDS011;57138;51.326;-0.068;2022-12-08T14:59:16;26.60;;;13.93;;
69841;SDS011;57138;51.326;-0.068;2022-12-08T15:01:47;30.23;;;13.65;;
69841;SDS011;57138;51.326;-0.068;2022-12-08T15:04:17;24.85;;;11.30;;
69841;SDS011;57138;51.326;-0.068;2022-12-08T15:09:37;22.73;;;11.45;;
69841;SDS011;57138;51.326;-0.068;2022-12-08T15:14:39;22.40;;;11.57;;
69841;SDS011;57138;51.326;-0.068;2022-12-08T15:19:54;25.57;;;11.97;;
69841;SDS011;57138;51.326;-0.068;2022-12-08T15:22:20;22.05;;;12.07;;
69841;SDS011;57138;51.326;-0.068;2022-12-08T15:24:48;30.02;;;13.60;;
69841;SDS011;57138;51.326;-0.068;2022-12-08T15:27:17;26.35;;;13.85;;
69841;SDS011;57138;51.326;-0.068;2022-12-08T15:29:43;23.13;;;12.15;;
69841;SDS011;57138;51.326;-0.068;2022-12-08T15:32:11;34.63;;;14.75;;
69841;SDS011;57138;51.326;-0.068;2022-12-08T15:34:40;29.35;;;13.98;;
69841;SDS011;57138;51.326;-0.068;2022-12-08T15:37:08;35.65;;;14.65;;
69841;SDS011;57138;51.326;-0.068;2022-12-08T15:39:47;36.55;;;15.23;;
69841;SDS011;57138;51.326;-0.068;2022-12-08T15:42:13;29.05;;;14.50;;
69841;SDS011;57138;51.326;-0.068;2022-12-08T15:44:39;29.95;;;14.68;;
69841;SDS011;57138;51.326;-0.068;2022-12-08T15:47:04;29.85;;;13.77;;
69841;SDS011;57138;51.326;-0.068;2022-12-08T15:49:30;30.60;;;13.05;;
69841;SDS011;57138;51.326;-0.068;2022-12-08T15:51:56;29.08;;;12.73;;
69841;SDS011;57138;51.326;-0.068;2022-12-08T15:54:21;30.10;;;13.70;;
69841;SDS011;57138;51.326;-0.068;2022-12-08T15:56:48;29.95;;;13.32;;
69841;SDS011;57138;51.326;-0.068;2022-12-08T15:59:17;29.90;;;13.70;;
69841;SDS011;57138;51.326;-0.068;2022-12-08T16:01:47;28.27;;;13.60;;
69841;SDS011;57138;51.326;-0.068;2022-12-08T16:04:14;33.80;;;13.90;;
69841;SDS011;57138;51.326;-0.068;2022-12-08T16:06:46;33.78;;;15.40;;
69841;SDS011;57138;51.326;-0.068;2022-12-08T16:09:15;39.67;;;16.15;;
69841;SDS011;57138;51.326;-0.068;2022-12-08T16:11:43;28.80;;;15.48;;
69841;SDS011;57138;51.326;-0.068;2022-12-08T16:14:27;31.77;;;15.82;;
69841;SDS011;57138;51.326;-0.068;2022-12-08T16:16:53;37.67;;;15.90;;
69841;SDS011;57138;51.326;-0.068;2022-12-08T16:19:18;30.25;;;15.82;;
69841;SDS011;57138;51.326;-0.068;2022-12-08T16:21:43;32.13;;;15.02;;
69841;SDS011;57138;51.326;-0.068;2022-12-08T16:24:09;34.78;;;15.50;;
69841;SDS011;57138;51.326;-0.068;2022-12-08T16:26:34;34.58;;;15.50;;
69841;SDS011;57138;51.326;-0.068;2022-12-08T16:29:00;32.97;;;15.07;;
69841;SDS011;57138;51.326;-0.068;2022-12-08T16:31:25;31.55;;;15.43;;
69841;SDS011;57138;51.326;-0.068;2022-12-08T16:33:51;28.25;;;14.27;;